createdAt,value
2024-03-02T00:01:08.768Z,4.25
2024-03-02T00:03:35.558Z,5.05
2024-03-02T00:06:04.951Z,4.57
2024-03-02T00:08:34.164Z,4.80
2024-03-02T00:11:02.235Z,4.85
2024-03-02T00:13:31.044Z,4.72
2024-03-02T00:15:58.302Z,4.80
2024-03-02T00:18:36.065Z,4.65
2024-03-02T00:21:04.046Z,4.80
2024-03-02T00:23:32.831Z,4.50
2024-03-02T00:26:01.457Z,4.50
2024-03-02T00:28:36.455Z,4.90
2024-03-02T00:31:15.514Z,4.50
2024-03-02T00:33:45.195Z,4.78
2024-03-02T00:36:13.865Z,5.47
2024-03-02T00:38:48.256Z,4.50
2024-03-02T00:41:32.103Z,4.70
2024-03-02T00:44:04.574Z,4.85
2024-03-02T00:46:35.740Z,4.80
2024-03-02T00:49:04.817Z,4.63
2024-03-02T00:51:32.984Z,4.55
2024-03-02T00:54:06.912Z,4.47
2024-03-02T00:56:35.913Z,4.38
2024-03-02T00:59:02.807Z,4.65
2024-03-02T01:01:29.581Z,4.97
2024-03-02T01:03:56.418Z,4.05
2024-03-02T01:06:23.803Z,4.50
2024-03-02T01:08:53.161Z,4.40
2024-03-02T01:11:23.800Z,4.32
2024-03-02T01:13:51.169Z,4.57
2024-03-02T01:16:17.848Z,4.75
2024-03-02T01:18:44.863Z,4.30
2024-03-02T01:21:11.706Z,4.88
2024-03-02T01:23:38.662Z,4.72
2024-03-02T01:26:05.841Z,4.25
2024-03-02T01:28:32.529Z,4.88
2024-03-02T01:30:59.179Z,4.45
2024-03-02T01:33:25.946Z,4.72
2024-03-02T01:35:52.662Z,4.28
2024-03-02T01:38:19.356Z,4.22
2024-03-02T01:40:46.069Z,4.47
2024-03-02T01:43:12.970Z,4.45
2024-03-02T01:45:39.715Z,4.60
2024-03-02T01:48:10.699Z,3.95
2024-03-02T01:50:37.425Z,4.90
2024-03-02T01:53:04.451Z,4.57
2024-03-02T01:55:32.051Z,4.25
2024-03-02T01:57:59.919Z,4.40
2024-03-02T02:00:27.359Z,4.13
2024-03-02T02:02:55.278Z,4.30
2024-03-02T02:05:22.683Z,4.03
2024-03-02T02:07:49.946Z,4.15
2024-03-02T02:10:16.843Z,4.50
2024-03-02T02:12:43.626Z,4.00
2024-03-02T02:15:24.059Z,4.80
2024-03-02T02:17:50.756Z,4.75
2024-03-02T02:20:17.797Z,4.10
2024-03-02T02:23:14.738Z,4.28
2024-03-02T02:25:41.511Z,3.88
2024-03-02T02:28:08.210Z,4.60
2024-03-02T02:30:34.992Z,4.55
2024-03-02T02:33:02.137Z,4.85
2024-03-02T02:35:29.483Z,4.50
2024-03-02T02:37:57.970Z,4.75
2024-03-02T02:40:24.918Z,4.63
2024-03-02T02:42:53.664Z,4.40
2024-03-02T02:45:21.143Z,4.30
2024-03-02T02:47:47.899Z,4.50
2024-03-02T02:50:14.812Z,4.85
2024-03-02T02:52:44.864Z,4.97
2024-03-02T02:55:13.532Z,4.50
2024-03-02T02:57:41.553Z,4.05
2024-03-02T03:00:21.348Z,4.47
2024-03-02T03:02:51.288Z,3.97
2024-03-02T03:05:19.052Z,4.32
2024-03-02T03:07:46.360Z,4.05
2024-03-02T03:10:14.483Z,4.22
2024-03-02T03:12:43.408Z,4.15
2024-03-02T03:15:11.364Z,4.45
2024-03-02T03:17:38.718Z,4.15
2024-03-02T03:20:07.254Z,4.28
2024-03-02T03:22:34.096Z,3.95
2024-03-02T03:25:01.191Z,4.20
2024-03-02T03:27:28.347Z,4.30
2024-03-02T03:29:55.651Z,4.00
2024-03-02T03:32:23.023Z,4.00
2024-03-02T03:34:50.103Z,4.10
2024-03-02T03:37:17.108Z,4.05
2024-03-02T03:39:45.967Z,4.03
2024-03-02T03:42:12.831Z,3.85
2024-03-02T03:44:40.476Z,4.00
2024-03-02T03:47:07.424Z,3.90
2024-03-02T03:49:34.304Z,4.22
2024-03-02T03:52:01.691Z,4.00
2024-03-02T03:54:28.417Z,3.60
2024-03-02T03:56:55.128Z,4.00
2024-03-02T03:59:21.784Z,4.10
2024-03-02T04:01:48.502Z,3.80
2024-03-02T04:04:15.351Z,3.55
2024-03-02T04:06:42.233Z,3.42
2024-03-02T04:09:09.104Z,3.40
2024-03-02T04:11:35.754Z,3.70
2024-03-02T04:14:02.391Z,3.70
2024-03-02T04:16:29.891Z,4.10
2024-03-02T04:18:56.684Z,3.35
2024-03-02T04:21:23.368Z,3.38
2024-03-02T04:23:50.133Z,3.58
2024-03-02T04:26:20.975Z,2.97
2024-03-02T04:31:17.968Z,3.05
2024-03-02T04:33:44.711Z,3.20
2024-03-02T04:36:11.425Z,2.92
2024-03-02T04:38:39.111Z,3.00
2024-03-02T04:41:09.426Z,3.17
2024-03-02T04:43:36.299Z,3.50
2024-03-02T04:46:03.336Z,3.10
2024-03-02T04:48:30.383Z,3.00
2024-03-02T04:50:57.037Z,2.85
2024-03-02T04:53:23.789Z,3.08
2024-03-02T04:56:13.199Z,2.90
2024-03-02T04:58:39.816Z,3.03
2024-03-02T05:01:06.482Z,2.75
2024-03-02T05:03:35.974Z,3.05
2024-03-02T05:06:02.752Z,3.15
2024-03-02T05:08:29.425Z,2.95
2024-03-02T05:10:56.098Z,2.97
2024-03-02T05:13:22.706Z,3.05
2024-03-02T05:15:50.942Z,2.83
2024-03-02T05:18:17.625Z,3.05
2024-03-02T05:20:44.232Z,2.70
2024-03-02T05:23:11.008Z,3.00
2024-03-02T05:25:37.840Z,3.08
2024-03-02T05:28:04.926Z,3.00
2024-03-02T05:30:31.623Z,2.92
2024-03-02T05:32:58.253Z,2.63
2024-03-02T05:35:24.842Z,2.70
2024-03-02T05:37:54.077Z,2.67
2024-03-02T05:40:24.285Z,2.45
2024-03-02T05:42:51.355Z,2.55
2024-03-02T05:45:18.355Z,2.67
2024-03-02T05:47:45.157Z,2.78
2024-03-02T05:50:11.852Z,2.63
2024-03-02T05:52:38.494Z,2.67
2024-03-02T05:55:06.169Z,2.53
2024-03-02T05:57:44.653Z,2.70
2024-03-02T06:00:12.712Z,2.50
2024-03-02T06:02:42.253Z,2.60
2024-03-02T06:05:08.998Z,2.95
2024-03-02T06:07:35.801Z,2.80
2024-03-02T06:10:02.539Z,2.72
2024-03-02T06:12:29.233Z,2.83
2024-03-02T06:14:55.887Z,2.80
2024-03-02T06:17:23.079Z,2.42
2024-03-02T06:19:49.710Z,2.83
2024-03-02T06:22:16.368Z,2.53
2024-03-02T06:24:43.390Z,2.53
2024-03-02T06:27:10.080Z,2.25
2024-03-02T06:29:36.847Z,2.50
2024-03-02T06:32:03.685Z,2.20
2024-03-02T06:34:30.419Z,2.35
2024-03-02T06:36:57.141Z,2.17
2024-03-02T06:39:25.641Z,2.20
2024-03-02T06:41:52.672Z,2.10
2024-03-02T06:44:19.450Z,2.25
2024-03-02T06:46:46.140Z,2.40
2024-03-02T06:49:12.817Z,2.10
2024-03-02T06:51:39.523Z,2.17
2024-03-02T06:54:06.179Z,1.90
2024-03-02T06:56:34.163Z,1.95
2024-03-02T06:59:00.953Z,2.10
2024-03-02T07:01:27.705Z,2.38
2024-03-02T07:03:54.493Z,2.28
2024-03-02T07:06:21.187Z,2.13
2024-03-02T07:08:47.824Z,2.00
2024-03-02T07:11:14.483Z,2.20
2024-03-02T07:13:41.188Z,1.75
2024-03-02T07:16:27.804Z,2.17
2024-03-02T07:18:56.839Z,2.10
2024-03-02T07:21:24.241Z,2.05
2024-03-02T07:23:51.209Z,2.20
2024-03-02T07:28:50.176Z,2.10
2024-03-02T07:31:16.903Z,2.10
2024-03-02T07:33:46.733Z,2.25
2024-03-02T07:36:14.001Z,2.45
2024-03-02T07:38:41.706Z,2.00
2024-03-02T07:41:10.165Z,2.10
2024-03-02T07:43:36.902Z,2.00
2024-03-02T07:46:04.408Z,2.10
2024-03-02T07:48:32.181Z,2.00
2024-03-02T07:51:01.664Z,2.10
2024-03-02T07:53:28.733Z,2.30
2024-03-02T07:55:55.572Z,2.25
2024-03-02T07:58:22.572Z,1.90
2024-03-02T08:00:50.632Z,2.00
2024-03-02T08:03:18.309Z,2.10
2024-03-02T08:05:45.852Z,2.03
2024-03-02T08:08:12.985Z,2.30
2024-03-02T08:10:39.603Z,2.03
2024-03-02T08:13:06.253Z,1.85
2024-03-02T08:15:32.966Z,2.00
2024-03-02T08:17:59.991Z,1.92
2024-03-02T08:20:26.836Z,1.90
2024-03-02T08:22:56.251Z,1.90
2024-03-02T08:25:23.679Z,2.28
2024-03-02T08:27:50.457Z,2.10
2024-03-02T08:30:17.221Z,1.85
2024-03-02T08:32:43.916Z,2.05
2024-03-02T08:35:10.627Z,2.10
2024-03-02T08:37:40.443Z,2.00
2024-03-02T08:40:08.876Z,1.85
2024-03-02T08:42:35.821Z,1.92
2024-03-02T08:45:02.916Z,2.00
2024-03-02T08:47:29.609Z,2.00
2024-03-02T08:49:57.971Z,1.80
2024-03-02T08:52:26.620Z,1.83
2024-03-02T08:54:53.342Z,1.67
2024-03-02T08:57:20.059Z,2.13
2024-03-02T08:59:46.813Z,1.73
2024-03-02T09:02:13.590Z,1.77
2024-03-02T09:04:40.252Z,1.70
2024-03-02T09:07:08.297Z,1.85
2024-03-02T09:09:35.021Z,1.92
2024-03-02T09:12:01.880Z,1.90
2024-03-02T09:14:28.776Z,2.42
2024-03-02T09:16:55.454Z,2.20
2024-03-02T09:19:22.084Z,2.15
2024-03-02T09:21:48.920Z,1.73
2024-03-02T09:24:18.442Z,2.13
2024-03-02T09:26:45.503Z,1.75
2024-03-02T09:29:12.339Z,2.35
2024-03-02T09:31:42.635Z,2.00
2024-03-02T09:34:09.671Z,1.73
2024-03-02T09:36:36.345Z,1.80
2024-03-02T09:39:05.025Z,1.70
2024-03-02T09:41:31.947Z,2.10
2024-03-02T09:43:59.385Z,1.80
2024-03-02T09:46:26.094Z,1.70
2024-03-02T09:48:52.806Z,1.52
2024-03-02T09:51:21.145Z,2.20
2024-03-02T09:53:48.915Z,1.65
2024-03-02T09:56:17.044Z,1.75
2024-03-02T09:58:45.214Z,2.08
2024-03-02T10:01:12.117Z,1.88
2024-03-02T10:03:42.843Z,1.90
2024-03-02T10:06:27.007Z,2.10
2024-03-02T10:08:55.953Z,1.73
2024-03-02T10:11:34.238Z,1.90
2024-03-02T10:14:13.980Z,1.90
2024-03-02T10:16:44.983Z,1.63
2024-03-02T10:19:25.256Z,1.63
2024-03-02T10:21:54.740Z,1.60
2024-03-02T10:24:23.149Z,1.63
2024-03-02T10:26:50.804Z,1.70
2024-03-02T10:29:17.745Z,1.67
2024-03-02T10:31:47.817Z,1.85
2024-03-02T10:34:14.905Z,1.90
2024-03-02T10:36:43.373Z,1.88
2024-03-02T10:39:10.798Z,1.98
2024-03-02T10:41:39.870Z,1.60
2024-03-02T10:44:11.001Z,1.98
2024-03-02T10:46:41.839Z,1.38
2024-03-02T10:51:38.006Z,1.50
2024-03-02T10:54:05.986Z,2.55
2024-03-02T10:56:46.110Z,1.30
2024-03-02T10:59:27.118Z,1.57
2024-03-02T11:02:01.265Z,1.60
2024-03-02T11:04:31.750Z,1.83
2024-03-02T11:07:19.004Z,1.55
2024-03-02T11:10:00.246Z,1.77
2024-03-02T11:12:32.226Z,1.58
2024-03-02T11:15:00.433Z,1.65
2024-03-02T11:17:27.504Z,1.63
2024-03-02T11:19:54.579Z,1.48
2024-03-02T11:22:22.017Z,1.88
2024-03-02T11:24:53.521Z,1.80
2024-03-02T11:27:49.334Z,2.08
2024-03-02T11:30:39.842Z,1.70
2024-03-02T11:33:12.798Z,1.75
2024-03-02T11:35:46.807Z,1.63
2024-03-02T11:38:13.648Z,2.00
2024-03-02T11:40:41.473Z,1.95
2024-03-02T11:43:12.107Z,1.77
2024-03-02T11:48:14.900Z,1.83
2024-03-02T11:50:45.260Z,1.83
2024-03-02T11:53:14.840Z,1.58
2024-03-02T11:55:48.383Z,1.77
2024-03-02T11:58:18.940Z,1.60
2024-03-02T12:00:46.361Z,1.75
2024-03-02T12:03:15.636Z,1.70
2024-03-02T12:05:43.464Z,1.80
2024-03-02T12:08:10.354Z,1.77
2024-03-02T12:10:38.636Z,1.55
2024-03-02T12:13:08.681Z,1.70
2024-03-02T12:15:39.927Z,2.05
2024-03-02T12:18:07.566Z,1.40
2024-03-02T12:20:35.181Z,1.70
2024-03-02T12:23:04.168Z,1.40
2024-03-02T12:25:33.054Z,3.85
2024-03-02T12:28:02.288Z,2.40
2024-03-02T12:30:31.332Z,2.05
2024-03-02T12:32:58.123Z,2.30
2024-03-02T12:35:26.111Z,1.55
2024-03-02T12:37:54.073Z,1.70
2024-03-02T12:40:23.478Z,1.70
2024-03-02T12:42:51.361Z,1.67
2024-03-02T12:45:25.297Z,1.42
2024-03-02T12:47:53.189Z,1.80
2024-03-02T12:50:20.875Z,1.65
2024-03-02T12:52:54.807Z,1.77
2024-03-02T12:55:23.490Z,1.70
2024-03-02T12:57:54.389Z,1.60
2024-03-02T13:00:22.978Z,1.73
2024-03-02T13:02:52.073Z,1.60
2024-03-02T13:05:20.305Z,1.52
2024-03-02T13:07:48.768Z,1.73
2024-03-02T13:10:15.491Z,1.48
2024-03-02T13:12:42.582Z,1.73
2024-03-02T13:15:09.881Z,2.33
2024-03-02T13:17:38.357Z,1.70
2024-03-02T13:20:09.719Z,1.67
2024-03-02T13:22:37.099Z,1.80
2024-03-02T13:25:07.517Z,1.52
2024-03-02T13:27:34.786Z,1.55
2024-03-02T13:30:03.861Z,1.80
2024-03-02T13:32:30.699Z,1.80
2024-03-02T13:34:57.400Z,1.85
2024-03-02T13:37:24.861Z,1.77
2024-03-02T13:39:51.810Z,1.58
2024-03-02T13:42:18.991Z,1.80
2024-03-02T13:44:50.896Z,1.67
2024-03-02T13:47:18.026Z,1.60
2024-03-02T13:49:47.023Z,1.73
2024-03-02T13:52:18.056Z,2.00
2024-03-02T13:54:47.084Z,1.55
2024-03-02T13:57:14.573Z,1.67
2024-03-02T13:59:43.265Z,1.75
2024-03-02T14:02:10.336Z,1.75
2024-03-02T14:04:38.177Z,1.73
2024-03-02T14:07:08.191Z,1.80
2024-03-02T14:09:35.562Z,1.70
2024-03-02T14:12:02.368Z,1.65
2024-03-02T14:14:29.166Z,1.63
2024-03-02T14:16:57.068Z,1.50
2024-03-02T14:19:23.830Z,1.80
2024-03-02T14:21:50.775Z,1.60
2024-03-02T14:24:17.463Z,1.48
2024-03-02T14:26:44.144Z,1.70
2024-03-02T14:29:10.920Z,1.80
2024-03-02T14:31:37.652Z,1.65
2024-03-02T14:34:04.522Z,1.50
2024-03-02T14:36:31.621Z,1.50
2024-03-02T14:38:58.654Z,1.70
2024-03-02T14:41:25.822Z,1.55
2024-03-02T14:43:52.966Z,1.60
2024-03-02T14:46:20.530Z,1.92
2024-03-02T14:48:47.868Z,1.67
2024-03-02T14:51:15.392Z,1.70
2024-03-02T14:53:42.833Z,1.80
2024-03-02T14:56:09.859Z,1.50
2024-03-02T14:58:38.031Z,1.40
2024-03-02T15:01:07.199Z,1.52
2024-03-02T15:03:34.879Z,1.73
2024-03-02T15:06:03.155Z,1.67
2024-03-02T15:08:29.826Z,1.80
2024-03-02T15:10:57.371Z,1.90
2024-03-02T15:13:26.000Z,1.80
2024-03-02T15:15:53.484Z,1.60
2024-03-02T15:18:20.255Z,1.50
2024-03-02T15:20:47.106Z,1.65
2024-03-02T15:23:13.962Z,1.70
2024-03-02T15:25:41.191Z,1.40
2024-03-02T15:28:08.089Z,1.40
2024-03-02T15:30:34.969Z,1.45
2024-03-02T15:33:01.886Z,1.60
2024-03-02T15:35:28.645Z,1.50
2024-03-02T15:37:55.317Z,1.52
2024-03-02T15:40:21.969Z,1.33
2024-03-02T15:42:48.697Z,1.58
2024-03-02T15:45:15.821Z,1.80
2024-03-02T15:47:43.421Z,1.70
2024-03-02T15:50:10.799Z,1.40
2024-03-02T15:52:37.663Z,1.30
2024-03-02T15:55:07.439Z,1.42
2024-03-02T15:57:35.180Z,1.57
2024-03-02T16:00:01.975Z,1.50
2024-03-02T16:04:55.305Z,1.50
2024-03-02T16:07:22.118Z,1.30
2024-03-02T16:09:48.820Z,1.35
2024-03-02T16:12:16.592Z,1.40
2024-03-02T16:14:43.307Z,1.48
2024-03-02T16:17:10.588Z,1.50
2024-03-02T16:19:40.512Z,1.30
2024-03-02T16:22:11.982Z,1.50
2024-03-02T16:24:38.755Z,1.70
2024-03-02T16:27:05.563Z,1.63
2024-03-02T16:29:33.082Z,1.92
2024-03-02T16:32:01.145Z,1.40
2024-03-02T16:34:28.376Z,1.45
2024-03-02T16:36:55.322Z,1.50
2024-03-02T16:39:21.959Z,1.40
2024-03-02T16:41:48.628Z,1.55
2024-03-02T16:44:15.315Z,1.60
2024-03-02T16:46:41.991Z,1.40
2024-03-02T16:49:08.826Z,1.42
2024-03-02T16:51:42.907Z,1.50
2024-03-02T16:54:09.774Z,1.50
2024-03-02T16:56:40.747Z,1.30
2024-03-02T16:59:07.941Z,1.48
2024-03-02T17:01:34.765Z,1.30
2024-03-02T17:04:06.802Z,1.42
2024-03-02T17:06:33.795Z,1.30
2024-03-02T17:09:01.028Z,1.30
2024-03-02T17:11:28.137Z,1.30
2024-03-02T17:13:59.156Z,1.85
2024-03-02T17:16:26.284Z,1.40
2024-03-02T17:18:53.749Z,1.80
2024-03-02T17:21:21.111Z,1.30
2024-03-02T17:23:48.285Z,1.88
2024-03-02T17:26:15.196Z,1.60
2024-03-02T17:28:42.586Z,1.50
2024-03-02T17:31:10.096Z,1.48
2024-03-02T17:33:37.022Z,1.38
2024-03-02T17:36:05.177Z,1.58
2024-03-02T17:38:32.465Z,1.60
2024-03-02T17:40:59.255Z,1.40
2024-03-02T17:43:26.397Z,1.40
2024-03-02T17:45:53.397Z,1.30
2024-03-02T17:48:23.015Z,1.50
2024-03-02T17:50:50.823Z,1.55
2024-03-02T17:53:17.683Z,1.63
2024-03-02T17:55:44.827Z,1.55
2024-03-02T17:58:11.650Z,1.77
2024-03-02T18:00:38.626Z,1.58
2024-03-02T18:03:06.835Z,1.65
2024-03-02T18:05:33.890Z,1.80
2024-03-02T18:08:00.658Z,1.95
2024-03-02T18:10:29.980Z,2.15
2024-03-02T18:12:59.760Z,1.80
2024-03-02T18:15:27.040Z,1.80
2024-03-02T18:17:53.785Z,1.70
2024-03-02T18:20:20.522Z,1.50
2024-03-02T18:22:47.306Z,1.70
2024-03-02T18:25:14.134Z,2.45
2024-03-02T18:27:40.820Z,2.60
2024-03-02T18:30:11.328Z,2.70
2024-03-02T18:35:06.781Z,2.20
2024-03-02T18:37:33.467Z,2.08
2024-03-02T18:40:00.303Z,1.90
2024-03-02T18:42:27.423Z,1.50
2024-03-02T18:44:55.158Z,1.70
2024-03-02T18:47:22.032Z,1.60
2024-03-02T18:49:48.775Z,1.40
2024-03-02T18:52:15.647Z,1.30
2024-03-02T18:54:42.897Z,1.20
2024-03-02T18:57:11.100Z,1.15
2024-03-02T18:59:37.930Z,1.38
2024-03-02T19:02:05.640Z,1.30
2024-03-02T19:04:32.553Z,1.20
2024-03-02T19:06:59.259Z,1.10
2024-03-02T19:09:25.887Z,0.95
2024-03-02T19:11:52.544Z,1.17
2024-03-02T19:14:19.223Z,1.00
2024-03-02T19:16:45.933Z,1.00
2024-03-02T19:19:12.628Z,1.00
2024-03-02T19:21:39.799Z,1.38
2024-03-02T19:24:06.691Z,1.20
2024-03-02T19:26:33.447Z,1.45
2024-03-02T19:29:00.161Z,1.35
2024-03-02T19:31:26.803Z,1.85
2024-03-02T19:33:53.485Z,1.15
2024-03-02T19:36:20.333Z,0.90
2024-03-02T19:38:47.004Z,0.82
2024-03-02T19:41:13.633Z,0.77
2024-03-02T19:43:40.319Z,0.98
2024-03-02T19:46:06.965Z,0.80
2024-03-02T19:48:33.646Z,0.82
2024-03-02T19:51:00.487Z,0.60
2024-03-02T19:53:27.147Z,0.57
2024-03-02T19:55:53.874Z,0.60
2024-03-02T19:58:20.875Z,0.60
2024-03-02T20:00:47.615Z,0.60
2024-03-02T20:03:15.329Z,0.75
2024-03-02T20:05:42.088Z,0.80
2024-03-02T20:08:08.839Z,0.80
2024-03-02T20:10:36.284Z,0.68
2024-03-02T20:13:05.947Z,0.50
2024-03-02T20:15:33.381Z,0.60
2024-03-02T20:18:00.212Z,0.60
2024-03-02T20:20:27.038Z,0.40
2024-03-02T20:22:53.631Z,0.40
2024-03-02T20:25:20.284Z,0.30
2024-03-02T20:27:47.153Z,0.20
2024-03-02T20:30:14.102Z,0.30
2024-03-02T20:32:40.784Z,0.50
2024-03-02T20:35:07.883Z,0.45
2024-03-02T20:37:34.574Z,0.47
2024-03-02T20:40:01.832Z,0.38
2024-03-02T20:42:28.803Z,0.30
2024-03-02T20:44:55.579Z,0.30
2024-03-02T20:47:23.862Z,0.28
2024-03-02T20:49:52.391Z,0.43
2024-03-02T20:52:20.945Z,0.43
2024-03-02T20:54:48.145Z,0.50
2024-03-02T20:57:15.103Z,0.35
2024-03-02T20:59:41.851Z,0.40
2024-03-02T21:02:08.659Z,0.28
2024-03-02T21:04:35.322Z,0.38
2024-03-02T21:07:03.999Z,0.38
2024-03-02T21:09:30.784Z,0.50
2024-03-02T21:11:57.617Z,0.40
2024-03-02T21:14:24.318Z,0.45
2024-03-02T21:16:52.007Z,0.40
2024-03-02T21:19:22.254Z,0.35
2024-03-02T21:21:49.072Z,0.30
2024-03-02T21:24:15.868Z,0.30
2024-03-02T21:26:43.456Z,0.50
2024-03-02T21:29:12.161Z,0.40
2024-03-02T21:31:39.016Z,0.50
2024-03-02T21:34:05.896Z,0.30
2024-03-02T21:36:33.739Z,0.50
2024-03-02T21:39:03.571Z,0.47
2024-03-02T21:41:31.959Z,0.40
2024-03-02T21:43:58.657Z,0.55
2024-03-02T21:46:25.307Z,0.50
2024-03-02T21:48:53.135Z,0.47
2024-03-02T21:51:20.202Z,0.40
2024-03-02T21:53:47.100Z,0.40
2024-03-02T21:56:14.071Z,0.50
2024-03-02T21:58:41.123Z,0.35
2024-03-02T22:01:08.759Z,0.70
2024-03-02T22:03:35.542Z,0.60
2024-03-02T22:06:02.261Z,0.70
2024-03-02T22:08:29.074Z,0.60
2024-03-02T22:10:56.206Z,0.43
2024-03-02T22:13:23.046Z,0.40
2024-03-02T22:15:50.172Z,0.40
2024-03-02T22:18:16.923Z,0.40
2024-03-02T22:20:43.644Z,0.43
2024-03-02T22:23:10.323Z,0.60
2024-03-02T22:25:37.097Z,0.60
2024-03-02T22:28:03.976Z,0.60
2024-03-02T22:30:30.798Z,0.40
2024-03-02T22:32:58.488Z,0.38
2024-03-02T22:35:28.138Z,0.60
2024-03-02T22:37:55.285Z,0.50
2024-03-02T22:40:23.972Z,0.30
2024-03-02T22:42:50.732Z,0.52
2024-03-02T22:45:17.484Z,0.50
2024-03-02T22:47:44.193Z,0.40
2024-03-02T22:50:11.251Z,0.40
2024-03-02T22:52:37.966Z,0.40
2024-03-02T22:55:05.225Z,0.30
2024-03-02T22:57:31.970Z,0.38
2024-03-02T22:59:58.619Z,0.40
2024-03-02T23:02:25.312Z,0.22
2024-03-02T23:04:52.550Z,0.40
2024-03-02T23:07:23.222Z,0.40
2024-03-02T23:09:50.290Z,0.30
2024-03-02T23:12:17.220Z,0.30
2024-03-02T23:14:43.972Z,0.30
2024-03-02T23:17:11.253Z,0.40
2024-03-02T23:19:38.059Z,0.50
2024-03-02T23:22:06.396Z,0.20
2024-03-02T23:24:33.225Z,0.22
2024-03-02T23:27:00.001Z,0.30
2024-03-02T23:29:27.451Z,0.20
2024-03-02T23:31:54.104Z,0.40
2024-03-02T23:34:20.865Z,0.20
2024-03-02T23:36:47.846Z,0.20
2024-03-02T23:39:34.522Z,0.10
2024-03-02T23:42:01.136Z,0.25
2024-03-02T23:44:27.788Z,0.30
2024-03-02T23:46:54.448Z,0.20
2024-03-02T23:49:21.139Z,0.25
2024-03-02T23:51:47.896Z,0.20
2024-03-02T23:54:14.582Z,0.13
2024-03-02T23:56:41.207Z,0.25
2024-03-02T23:59:08.089Z,0.22
